createdAt,value
2022-09-16T00:01:22.590Z,11.00
2022-09-16T00:03:56.818Z,10.00
2022-09-16T00:06:29.555Z,12.50
2022-09-16T00:09:03.671Z,10.67
2022-09-16T00:11:35.206Z,9.00
2022-09-16T00:14:04.046Z,8.50
2022-09-16T00:16:31.843Z,8.00
2022-09-16T00:19:02.039Z,9.00
2022-09-16T00:21:31.597Z,8.00
2022-09-16T00:23:59.529Z,7.50
2022-09-16T00:26:29.967Z,7.00
2022-09-16T00:28:58.473Z,6.67
2022-09-16T00:31:26.240Z,7.00
2022-09-16T00:33:54.688Z,8.00
2022-09-16T00:36:23.138Z,6.33
2022-09-16T00:38:55.272Z,7.00
2022-09-16T00:41:33.675Z,7.00
2022-09-16T00:44:08.067Z,7.33
2022-09-16T00:46:44.591Z,6.60
2022-09-16T00:49:29.705Z,6.67
2022-09-16T00:52:03.860Z,9.00
2022-09-16T00:54:34.240Z,8.00
2022-09-16T00:57:04.992Z,9.00
2022-09-16T00:59:43.330Z,9.00
2022-09-16T01:02:18.151Z,7.00
2022-09-16T01:05:19.286Z,8.00
2022-09-16T01:07:54.331Z,7.67
2022-09-16T01:10:26.634Z,7.00
2022-09-16T01:13:08.684Z,7.67
2022-09-16T01:16:00.127Z,7.00
2022-09-16T01:19:02.051Z,8.00
2022-09-16T01:22:29.772Z,6.00
2022-09-16T01:25:35.918Z,6.00
2022-09-16T01:28:22.214Z,6.00
2022-09-16T01:32:04.319Z,7.00
2022-09-16T01:35:17.279Z,8.00
2022-09-16T01:38:17.233Z,7.00
2022-09-16T01:41:05.478Z,5.20
2022-09-16T01:44:20.027Z,3.20
2022-09-16T01:47:05.166Z,5.40
2022-09-16T01:49:56.517Z,4.60
2022-09-16T01:53:09.255Z,4.60
2022-09-16T01:55:59.795Z,5.00
2022-09-16T01:58:49.506Z,5.00
2022-09-16T02:01:36.076Z,5.00
2022-09-16T02:04:46.413Z,5.40
2022-09-16T02:07:25.449Z,5.60
2022-09-16T02:10:01.453Z,5.00
2022-09-16T02:12:35.124Z,6.00
2022-09-16T02:15:11.554Z,4.60
2022-09-16T02:17:47.927Z,4.40
2022-09-16T02:20:27.986Z,4.60
2022-09-16T02:23:34.252Z,5.00
2022-09-16T02:26:07.020Z,6.50
2022-09-16T02:28:44.564Z,5.29
2022-09-16T02:31:15.050Z,5.60
2022-09-16T02:33:47.197Z,6.60
2022-09-16T02:36:22.209Z,8.00
2022-09-16T02:39:09.459Z,6.20
2022-09-16T02:41:41.403Z,7.00
2022-09-16T02:44:11.350Z,6.00
2022-09-16T02:46:58.345Z,7.00
2022-09-16T02:50:12.938Z,4.50
2022-09-16T02:53:02.812Z,5.20
2022-09-16T02:55:53.808Z,5.00
2022-09-16T02:58:21.737Z,6.00
2022-09-16T03:00:55.781Z,6.00
2022-09-16T03:03:27.128Z,5.57
2022-09-16T03:06:10.009Z,6.00
2022-09-16T03:08:39.226Z,6.00
2022-09-16T03:11:38.316Z,6.50
2022-09-16T03:14:37.605Z,8.00
2022-09-16T03:17:12.807Z,7.00
2022-09-16T03:19:57.477Z,6.20
2022-09-16T03:22:38.164Z,7.00
2022-09-16T03:25:53.497Z,8.33
2022-09-16T03:28:46.318Z,7.80
2022-09-16T03:31:34.796Z,8.00
2022-09-16T03:34:37.801Z,9.00
2022-09-16T03:37:12.132Z,9.00
2022-09-16T03:39:41.582Z,9.67
2022-09-16T03:42:11.711Z,9.00
2022-09-16T03:44:41.648Z,8.00
2022-09-16T03:47:10.732Z,7.33
2022-09-16T03:49:39.458Z,7.67
2022-09-16T03:52:08.636Z,8.00
2022-09-16T03:54:38.889Z,9.00
2022-09-16T03:57:07.424Z,7.00
2022-09-16T03:59:35.106Z,10.00
2022-09-16T04:02:03.805Z,8.33
2022-09-16T04:04:32.278Z,9.00
2022-09-16T04:07:00.011Z,9.00
2022-09-16T04:09:27.672Z,9.00
2022-09-16T04:11:56.157Z,9.00
2022-09-16T04:14:24.713Z,9.33
2022-09-16T04:16:52.403Z,11.00
2022-09-16T04:19:21.106Z,11.00
2022-09-16T04:21:49.533Z,11.00
2022-09-16T04:24:17.681Z,12.00
2022-09-16T04:26:46.006Z,10.50
2022-09-16T04:29:14.811Z,9.33
2022-09-16T04:31:44.121Z,12.00
2022-09-16T04:34:13.178Z,10.00
2022-09-16T04:36:41.719Z,8.00
2022-09-16T04:39:09.415Z,11.00
2022-09-16T04:41:38.970Z,12.00
2022-09-16T04:44:06.715Z,9.00
2022-09-16T04:46:35.308Z,11.00
2022-09-16T04:49:04.144Z,11.33
2022-09-16T04:51:33.034Z,12.00
2022-09-16T04:54:01.800Z,12.50
2022-09-16T04:56:33.488Z,12.50
2022-09-16T04:59:05.497Z,12.50
2022-09-16T05:01:38.710Z,11.67
2022-09-16T05:04:10.170Z,12.00
2022-09-16T05:06:41.567Z,13.00
2022-09-16T05:09:12.737Z,13.00
2022-09-16T05:11:42.399Z,13.00
2022-09-16T05:14:16.873Z,11.00
2022-09-16T05:16:46.694Z,11.67
2022-09-16T05:19:16.319Z,14.00
2022-09-16T05:21:44.916Z,14.00
2022-09-16T05:24:15.274Z,13.00
2022-09-16T05:26:44.982Z,12.00
2022-09-16T05:29:17.190Z,12.00
2022-09-16T05:31:49.356Z,10.67
2022-09-16T05:34:22.107Z,15.00
2022-09-16T05:36:54.158Z,11.00
2022-09-16T05:39:25.353Z,13.00
2022-09-16T05:41:59.725Z,15.50
2022-09-16T05:44:29.707Z,14.00
2022-09-16T05:46:58.537Z,13.00
2022-09-16T05:49:27.249Z,14.00
2022-09-16T05:51:56.014Z,14.00
2022-09-16T05:54:25.517Z,13.00
2022-09-16T05:56:54.260Z,14.50
2022-09-16T05:59:24.258Z,14.50
2022-09-16T06:01:53.288Z,14.67
2022-09-16T06:04:22.049Z,15.00
2022-09-16T06:06:50.657Z,14.50
2022-09-16T06:09:25.446Z,16.33
2022-09-16T06:12:01.437Z,18.67
2022-09-16T06:14:30.680Z,13.33
2022-09-16T06:16:59.297Z,14.00
2022-09-16T06:19:27.997Z,14.00
2022-09-16T06:21:57.136Z,14.00
2022-09-16T06:24:25.782Z,14.50
2022-09-16T06:26:54.359Z,15.00
2022-09-16T06:29:23.104Z,14.50
2022-09-16T06:31:51.736Z,14.00
2022-09-16T06:34:20.225Z,15.67
2022-09-16T06:36:48.873Z,12.67
2022-09-16T06:39:17.575Z,11.50
2022-09-16T06:41:46.575Z,13.00
2022-09-16T06:44:15.195Z,13.67
2022-09-16T06:46:44.341Z,15.50
2022-09-16T06:49:13.299Z,14.00
2022-09-16T06:51:41.923Z,13.00
2022-09-16T06:54:11.967Z,16.00
2022-09-16T06:56:41.632Z,12.00
2022-09-16T06:59:13.067Z,13.00
2022-09-16T07:01:44.899Z,15.00
2022-09-16T07:04:13.686Z,15.00
2022-09-16T07:07:08.301Z,14.00
2022-09-16T07:09:32.637Z,13.00
2022-09-16T07:12:02.278Z,13.50
2022-09-16T07:14:32.750Z,14.67
2022-09-16T07:17:03.000Z,13.50
2022-09-16T07:19:31.716Z,15.67
2022-09-16T07:21:59.645Z,15.00
2022-09-16T07:24:28.220Z,13.00
2022-09-16T07:26:56.783Z,14.33
2022-09-16T07:29:25.622Z,15.00
2022-09-16T07:31:54.397Z,14.00
2022-09-16T07:34:23.015Z,14.00
2022-09-16T07:36:51.781Z,16.50
2022-09-16T07:39:21.379Z,15.00
2022-09-16T07:41:50.043Z,13.50
2022-09-16T07:44:21.594Z,14.00
2022-09-16T07:46:51.617Z,14.50
2022-09-16T07:49:20.762Z,15.00
2022-09-16T07:51:50.028Z,12.50
2022-09-16T07:54:20.240Z,14.00
2022-09-16T07:56:49.016Z,13.00
2022-09-16T07:59:21.833Z,12.00
2022-09-16T08:01:50.901Z,14.00
2022-09-16T08:04:21.187Z,14.00
2022-09-16T08:06:50.112Z,13.00
2022-09-16T08:12:11.024Z,11.50
2022-09-16T08:14:39.838Z,15.50
2022-09-16T08:17:08.791Z,15.50
2022-09-16T08:19:39.352Z,13.00
2022-09-16T08:22:07.988Z,13.00
2022-09-16T08:24:36.620Z,13.00
2022-09-16T08:27:05.343Z,12.00
2022-09-16T08:29:33.957Z,13.00
2022-09-16T08:32:02.854Z,13.00
2022-09-16T08:34:30.590Z,9.00
2022-09-16T08:36:59.197Z,13.50
2022-09-16T08:39:27.886Z,13.50
2022-09-16T08:42:31.912Z,12.00
2022-09-16T08:45:00.537Z,11.67
2022-09-16T08:47:46.700Z,12.50
2022-09-16T08:50:29.287Z,12.50
2022-09-16T08:53:01.558Z,13.00
2022-09-16T08:55:42.904Z,11.00
2022-09-16T08:58:26.099Z,12.50
2022-09-16T09:01:03.457Z,12.00
2022-09-16T09:03:43.682Z,11.00
2022-09-16T09:06:42.977Z,11.50
2022-09-16T09:09:45.793Z,9.00
2022-09-16T09:12:42.315Z,9.50
2022-09-16T09:15:58.112Z,8.00
2022-09-16T09:19:13.493Z,6.33
2022-09-16T09:22:23.674Z,9.00
2022-09-16T09:25:44.940Z,9.00
2022-09-16T09:28:43.919Z,9.00
2022-09-16T09:31:31.119Z,10.00
2022-09-16T09:34:44.417Z,9.00
2022-09-16T09:37:48.741Z,9.00
2022-09-16T09:40:49.640Z,9.33
2022-09-16T09:43:35.924Z,9.00
2022-09-16T09:46:12.924Z,10.33
2022-09-16T09:49:13.744Z,8.33
2022-09-16T09:51:51.914Z,8.00
2022-09-16T09:54:26.383Z,9.00
2022-09-16T09:57:12.543Z,8.00
2022-09-16T10:00:12.760Z,8.33
2022-09-16T10:02:49.615Z,8.00
2022-09-16T10:05:29.147Z,9.50
2022-09-16T10:08:13.004Z,9.00
2022-09-16T10:11:00.853Z,10.00
2022-09-16T10:13:31.511Z,9.33
2022-09-16T10:16:21.432Z,9.00
2022-09-16T10:19:09.082Z,9.50
2022-09-16T10:21:55.351Z,7.00
2022-09-16T10:24:36.942Z,8.00
2022-09-16T10:27:38.868Z,10.00
2022-09-16T10:33:30.548Z,8.67
2022-09-16T10:36:10.337Z,8.00
2022-09-16T10:38:55.406Z,9.50
2022-09-16T10:41:40.913Z,8.67
2022-09-16T10:44:39.773Z,9.67
2022-09-16T10:47:27.322Z,9.00
2022-09-16T10:50:05.332Z,10.00
2022-09-16T10:52:45.878Z,8.67
2022-09-16T10:55:38.790Z,10.00
2022-09-16T10:58:19.341Z,9.00
2022-09-16T11:01:30.617Z,7.33
2022-09-16T11:04:57.714Z,8.50
2022-09-16T11:08:13.459Z,8.00
2022-09-16T11:11:17.954Z,12.00
2022-09-16T11:13:54.417Z,7.00
2022-09-16T11:16:56.371Z,8.00
2022-09-16T11:20:07.014Z,7.00
2022-09-16T11:23:31.110Z,8.00
2022-09-16T11:27:16.480Z,7.00
2022-09-16T11:30:08.195Z,8.00
2022-09-16T11:33:04.687Z,8.67
2022-09-16T11:36:01.770Z,7.00
2022-09-16T11:39:05.935Z,9.00
2022-09-16T11:42:02.438Z,8.00
2022-09-16T11:45:08.878Z,8.00
2022-09-16T11:48:20.149Z,8.33
2022-09-16T11:51:42.510Z,8.20
2022-09-16T11:54:55.547Z,7.50
2022-09-16T11:57:32.227Z,6.67
2022-09-16T12:00:16.759Z,7.33
2022-09-16T12:03:10.748Z,7.40
2022-09-16T12:05:53.768Z,6.40
2022-09-16T12:09:04.534Z,5.80
2022-09-16T12:11:44.701Z,5.00
2022-09-16T12:14:37.826Z,5.00
2022-09-16T12:17:22.747Z,4.00
2022-09-16T12:20:00.933Z,4.00
2022-09-16T12:23:18.903Z,5.00
2022-09-16T12:26:22.255Z,5.00
2022-09-16T12:29:31.781Z,5.60
2022-09-16T12:32:37.039Z,5.40
2022-09-16T12:35:22.076Z,6.60
2022-09-16T12:37:54.108Z,7.00
2022-09-16T12:40:52.949Z,8.33
2022-09-16T12:43:51.475Z,8.00
2022-09-16T12:46:59.997Z,7.00
2022-09-16T12:50:16.557Z,6.40
2022-09-16T12:53:37.209Z,7.00
2022-09-16T12:56:43.671Z,7.00
2022-09-16T12:59:29.092Z,6.00
2022-09-16T13:02:33.758Z,7.00
2022-09-16T13:05:34.294Z,7.00
2022-09-16T13:08:31.123Z,8.00
2022-09-16T13:14:04.064Z,6.33
2022-09-16T13:16:37.193Z,7.67
2022-09-16T13:19:22.882Z,7.33
2022-09-16T13:22:02.388Z,8.00
2022-09-16T13:24:53.833Z,7.00
2022-09-16T13:27:39.298Z,8.00
2022-09-16T13:30:13.815Z,9.00
2022-09-16T13:32:54.181Z,9.67
2022-09-16T13:35:44.745Z,9.00
2022-09-16T13:38:18.805Z,7.00
2022-09-16T13:41:02.126Z,8.00
2022-09-16T13:43:53.033Z,7.33
2022-09-16T13:46:50.625Z,9.33
2022-09-16T13:49:27.893Z,6.00
2022-09-16T13:51:57.368Z,6.80
2022-09-16T13:55:06.287Z,8.00
2022-09-16T13:57:59.076Z,7.33
2022-09-16T14:00:36.405Z,7.00
2022-09-16T14:03:16.819Z,7.00
2022-09-16T14:06:12.451Z,7.00
2022-09-16T14:09:44.137Z,5.00
2022-09-16T14:13:03.091Z,6.40
2022-09-16T14:15:43.013Z,7.40
2022-09-16T14:18:19.308Z,7.00
2022-09-16T14:21:20.921Z,7.00
2022-09-16T14:23:51.000Z,7.00
2022-09-16T14:26:24.208Z,7.67
2022-09-16T14:29:04.954Z,7.00
2022-09-16T14:31:35.327Z,8.00
2022-09-16T14:34:09.771Z,7.33
2022-09-16T14:36:40.902Z,7.33
2022-09-16T14:39:14.117Z,8.00
2022-09-16T14:41:45.090Z,7.00
2022-09-16T14:44:40.095Z,7.50
2022-09-16T14:47:47.491Z,4.00
2022-09-16T14:50:31.720Z,7.00
2022-09-16T14:53:08.303Z,7.00
2022-09-16T14:55:40.343Z,7.67
2022-09-16T14:58:11.780Z,7.67
2022-09-16T15:00:54.324Z,8.00
2022-09-16T15:03:34.229Z,7.67
2022-09-16T15:06:11.890Z,7.00
2022-09-16T15:08:54.575Z,7.33
2022-09-16T15:11:48.410Z,6.00
2022-09-16T15:14:18.333Z,7.50
2022-09-16T15:16:54.991Z,8.00
2022-09-16T15:19:31.793Z,8.00
2022-09-16T15:22:00.763Z,8.33
2022-09-16T15:24:33.988Z,9.00
2022-09-16T15:27:02.826Z,23.50
2022-09-16T15:29:36.916Z,10.00
2022-09-16T15:32:21.807Z,7.67
2022-09-16T15:35:27.614Z,9.00
2022-09-16T15:37:56.544Z,11.33
2022-09-16T15:40:27.211Z,8.00
2022-09-16T15:43:27.930Z,8.00
2022-09-16T15:46:25.794Z,8.00
2022-09-16T15:49:01.963Z,8.33
2022-09-16T15:51:37.847Z,9.00
2022-09-16T15:54:32.590Z,6.00
2022-09-16T15:57:38.398Z,6.00
2022-09-16T16:00:12.997Z,5.00
2022-09-16T16:02:59.323Z,5.00
2022-09-16T16:05:32.061Z,5.40
2022-09-16T16:08:09.077Z,5.80
2022-09-16T16:10:42.113Z,5.57
2022-09-16T16:13:09.685Z,4.50
2022-09-16T16:15:41.242Z,5.40
2022-09-16T16:18:10.882Z,4.50
2022-09-16T16:20:40.406Z,6.00
2022-09-16T16:23:08.244Z,0.00
2022-09-16T16:25:35.923Z,5.00
2022-09-16T16:28:04.123Z,5.00
2022-09-16T16:30:31.934Z,5.00
2022-09-16T16:32:59.573Z,4.00
2022-09-16T16:35:28.941Z,4.00
2022-09-16T16:37:58.171Z,4.00
2022-09-16T16:40:26.070Z,5.00
2022-09-16T16:42:53.687Z,5.00
2022-09-16T16:45:23.131Z,4.60
2022-09-16T16:47:50.828Z,5.50
2022-09-16T16:50:18.450Z,5.00
2022-09-16T16:52:53.491Z,3.60
2022-09-16T16:55:21.113Z,4.00
2022-09-16T16:57:50.572Z,3.80
2022-09-16T17:00:18.953Z,3.50
2022-09-16T17:02:47.149Z,4.00
2022-09-16T17:05:14.880Z,5.00
2022-09-16T17:07:42.563Z,5.00
2022-09-16T17:10:12.009Z,4.00
2022-09-16T17:12:42.196Z,5.00
2022-09-16T17:15:10.379Z,3.00
2022-09-16T17:17:40.666Z,5.40
2022-09-16T17:20:10.233Z,4.00
2022-09-16T17:22:37.851Z,5.00
2022-09-16T17:25:06.130Z,4.00
2022-09-16T17:27:34.083Z,2.00
2022-09-16T17:30:04.044Z,3.60
2022-09-16T17:32:31.660Z,4.00
2022-09-16T17:34:59.291Z,4.00
2022-09-16T17:37:26.990Z,2.00
2022-09-16T17:39:54.730Z,2.00
2022-09-16T17:42:22.401Z,3.00
2022-09-16T17:44:53.765Z,4.00
2022-09-16T17:47:22.135Z,5.00
2022-09-16T17:49:50.201Z,3.00
2022-09-16T17:52:17.787Z,2.00
2022-09-16T17:54:45.432Z,4.00
2022-09-16T17:57:13.007Z,4.00
2022-09-16T17:59:42.206Z,3.50
2022-09-16T18:02:12.202Z,4.50
2022-09-16T18:04:43.442Z,2.00
2022-09-16T18:07:11.112Z,5.00
2022-09-16T18:09:40.708Z,4.20
2022-09-16T18:12:08.497Z,3.00
2022-09-16T18:14:36.341Z,4.00
2022-09-16T18:17:04.524Z,4.00
2022-09-16T18:19:33.244Z,17.67
2022-09-16T18:22:00.956Z,3.50
2022-09-16T18:24:28.552Z,4.50
2022-09-16T18:26:56.199Z,4.00
2022-09-16T18:29:23.861Z,4.00
2022-09-16T18:31:52.847Z,3.00
2022-09-16T18:34:21.113Z,1.00
2022-09-16T18:36:48.780Z,4.00
2022-09-16T18:39:18.401Z,3.00
2022-09-16T18:41:47.219Z,4.00
2022-09-16T18:44:20.109Z,5.00
2022-09-16T18:46:48.394Z,5.00
2022-09-16T18:49:18.963Z,5.00
2022-09-16T18:51:52.108Z,4.50
2022-09-16T18:54:28.850Z,6.00
2022-09-16T18:57:02.057Z,4.50
2022-09-16T18:59:34.236Z,5.00
2022-09-16T19:02:05.830Z,4.20
2022-09-16T19:04:42.504Z,6.00
2022-09-16T19:07:14.524Z,4.00
2022-09-16T19:09:42.616Z,3.00
2022-09-16T19:12:13.237Z,4.00
2022-09-16T19:14:43.299Z,5.00
2022-09-16T19:17:11.190Z,4.00
2022-09-16T19:19:39.002Z,5.00
2022-09-16T19:22:06.752Z,5.00
2022-09-16T19:24:35.227Z,5.00
2022-09-16T19:27:06.448Z,6.00
2022-09-16T19:29:35.971Z,6.00
2022-09-16T19:32:05.592Z,6.00
2022-09-16T19:34:33.427Z,5.00
2022-09-16T19:37:02.901Z,4.80
2022-09-16T19:39:32.292Z,5.00
2022-09-16T19:42:03.881Z,6.00
2022-09-16T19:44:32.108Z,4.00
2022-09-16T19:46:59.844Z,5.00
2022-09-16T19:49:27.494Z,5.00
2022-09-16T19:51:55.307Z,4.00
2022-09-16T19:54:24.382Z,5.00
2022-09-16T19:56:52.619Z,4.00
2022-09-16T19:59:21.239Z,4.00
2022-09-16T20:01:49.775Z,4.00
2022-09-16T20:04:20.571Z,5.00
2022-09-16T20:06:49.010Z,5.00
2022-09-16T20:09:20.047Z,4.00
2022-09-16T20:11:49.226Z,5.00
2022-09-16T20:14:21.867Z,3.00
2022-09-16T20:16:52.093Z,5.00
2022-09-16T20:19:21.224Z,4.50
2022-09-16T20:21:49.238Z,4.50
2022-09-16T20:24:24.763Z,5.33
2022-09-16T20:26:57.486Z,6.00
2022-09-16T20:29:27.081Z,6.00
2022-09-16T20:31:56.507Z,5.80
2022-09-16T20:34:27.787Z,6.00
2022-09-16T20:36:57.121Z,6.25
2022-09-16T20:39:26.576Z,6.60
2022-09-16T20:41:56.030Z,8.00
2022-09-16T20:44:27.228Z,5.71
2022-09-16T20:46:58.376Z,7.00
2022-09-16T20:49:26.520Z,5.00
2022-09-16T20:51:55.277Z,6.00
2022-09-16T20:54:22.913Z,6.00
2022-09-16T20:56:50.665Z,7.00
2022-09-16T20:59:20.740Z,5.80
2022-09-16T21:01:50.302Z,5.60
2022-09-16T21:04:21.635Z,7.43
2022-09-16T21:06:51.071Z,8.00
2022-09-16T21:09:19.290Z,6.00
2022-09-16T21:11:47.874Z,7.00
2022-09-16T21:14:18.147Z,7.00
2022-09-16T21:16:47.221Z,8.00
2022-09-16T21:19:18.027Z,6.00
2022-09-16T21:21:50.052Z,7.20
2022-09-16T21:24:19.296Z,7.00
2022-09-16T21:26:47.118Z,8.50
2022-09-16T21:29:21.260Z,8.00
2022-09-16T21:31:51.724Z,7.20
2022-09-16T21:34:21.736Z,7.00
2022-09-16T21:36:50.940Z,9.00
2022-09-16T21:39:21.230Z,2.00
2022-09-16T21:41:50.877Z,8.40
2022-09-16T21:44:20.330Z,7.00
2022-09-16T21:46:51.004Z,9.00
2022-09-16T21:49:25.871Z,9.00
2022-09-16T21:51:57.360Z,9.50
2022-09-16T21:54:26.727Z,7.00
2022-09-16T21:56:54.499Z,8.00
2022-09-16T21:59:22.348Z,8.00
2022-09-16T22:01:51.920Z,9.00
2022-09-16T22:04:24.415Z,8.33
2022-09-16T22:06:55.731Z,7.50
2022-09-16T22:09:24.454Z,8.00
2022-09-16T22:11:52.348Z,7.00
2022-09-16T22:14:20.899Z,8.00
2022-09-16T22:16:48.552Z,8.00
2022-09-16T22:19:19.544Z,9.00
2022-09-16T22:21:51.103Z,9.00
2022-09-16T22:24:21.622Z,8.00
2022-09-16T22:26:51.772Z,8.50
2022-09-16T22:29:20.036Z,10.00
2022-09-16T22:31:48.336Z,10.00
2022-09-16T22:34:16.959Z,8.33
2022-09-16T22:36:44.890Z,10.00
2022-09-16T22:39:18.385Z,9.00
2022-09-16T22:41:47.762Z,10.00
2022-09-16T22:44:15.536Z,7.50
2022-09-16T22:46:48.105Z,9.00
2022-09-16T22:49:17.859Z,8.40
2022-09-16T22:51:46.501Z,9.33
2022-09-16T22:54:15.972Z,8.00
2022-09-16T22:56:45.062Z,9.00
2022-09-16T22:59:20.973Z,10.00
2022-09-16T23:01:49.803Z,9.00
2022-09-16T23:04:18.149Z,9.50
2022-09-16T23:06:46.891Z,11.50
2022-09-16T23:09:15.701Z,10.00
2022-09-16T23:11:44.918Z,9.67
2022-09-16T23:14:24.906Z,9.00
2022-09-16T23:16:54.400Z,9.33
2022-09-16T23:19:22.699Z,9.00
2022-09-16T23:21:50.505Z,9.00
2022-09-16T23:24:22.249Z,8.67
2022-09-16T23:26:50.758Z,8.00
2022-09-16T23:29:19.304Z,8.67
2022-09-16T23:31:47.370Z,11.00
2022-09-16T23:34:21.845Z,10.33
2022-09-16T23:36:51.174Z,10.00
2022-09-16T23:39:19.849Z,10.00
2022-09-16T23:41:49.589Z,10.00
2022-09-16T23:44:18.191Z,10.00
2022-09-16T23:46:46.182Z,9.00
2022-09-16T23:49:19.418Z,7.33
2022-09-16T23:51:48.638Z,9.50
2022-09-16T23:54:17.697Z,9.00
2022-09-16T23:56:46.178Z,9.00
2022-09-16T23:59:14.685Z,9.00
